createdAt,value
2023-04-07T00:00:24.757Z,54.3855
2023-04-07T00:01:26.650Z,56.7673
2023-04-07T00:02:28.949Z,56.6864
2023-04-07T00:03:31.276Z,56.4851
2023-04-07T00:04:31.320Z,55.9409
2023-04-07T00:05:33.220Z,56.2149
2023-04-07T00:06:35.311Z,56.1851
2023-04-07T00:07:55.208Z,56.6957
2023-04-07T00:08:39.553Z,56.6944
2023-04-07T00:09:41.443Z,56.8873
2023-04-07T00:10:43.346Z,55.5935
2023-04-07T00:11:45.211Z,55.7354
2023-04-07T00:12:47.162Z,55.8636
2023-04-07T00:13:49.042Z,55.9701
2023-04-07T00:14:50.989Z,56.0454
2023-04-07T00:15:52.978Z,56.6236
2023-04-07T00:16:54.790Z,57.7747
2023-04-07T00:17:56.961Z,57.3524
2023-04-07T00:18:58.919Z,57.5922
2023-04-07T00:20:00.839Z,57.1722
2023-04-07T00:21:02.741Z,55.7728
2023-04-07T00:22:04.634Z,54.3774
2023-04-07T00:23:06.519Z,54.9693
2023-04-07T00:24:08.438Z,55.2495
2023-04-07T00:25:10.444Z,57.1008
2023-04-07T00:26:12.320Z,58.4805
2023-04-07T00:27:14.320Z,56.7198
2023-04-07T00:28:16.233Z,55.9244
2023-04-07T00:29:18.137Z,56.2845
2023-04-07T00:30:20.020Z,56.1972
2023-04-07T00:31:22.032Z,56.4901
2023-04-07T00:32:23.982Z,56.9004
2023-04-07T00:33:25.861Z,57.2782
2023-04-07T00:34:27.766Z,60.9128
2023-04-07T00:35:29.683Z,62.0556
2023-04-07T00:36:31.539Z,61.8501
2023-04-07T00:37:33.437Z,61.1651
2023-04-07T00:38:35.309Z,60.5564
2023-04-07T00:39:37.255Z,61.2536
2023-04-07T00:40:39.203Z,60.5167
2023-04-07T00:41:41.076Z,60.5190
2023-04-07T00:42:43.084Z,60.0975
2023-04-07T00:43:45.006Z,57.3658
2023-04-07T00:44:46.910Z,57.3758
2023-04-07T00:45:48.806Z,57.9546
2023-04-07T00:46:50.820Z,57.6800
2023-04-07T00:47:52.809Z,58.1986
2023-04-07T00:48:54.692Z,56.9822
2023-04-07T00:49:56.643Z,56.8243
2023-04-07T00:50:58.539Z,57.6288
2023-04-07T00:52:00.515Z,58.0841
2023-04-07T00:53:02.916Z,57.2867
2023-04-07T00:54:02.709Z,58.5408
2023-04-07T00:55:04.650Z,58.7163
2023-04-07T00:56:06.581Z,57.9169
2023-04-07T00:57:08.653Z,58.0523
2023-04-07T00:58:10.649Z,58.7128
2023-04-07T00:59:12.590Z,58.9635
2023-04-07T01:00:14.498Z,59.2385
2023-04-07T01:01:16.451Z,59.8129
2023-04-07T01:02:18.574Z,59.7498
2023-04-07T01:03:21.769Z,59.7757
2023-04-07T01:04:21.743Z,59.7348
2023-04-07T01:05:23.786Z,60.2699
2023-04-07T01:06:25.709Z,59.4952
2023-04-07T01:07:27.652Z,59.4614
2023-04-07T01:08:29.597Z,58.3969
2023-04-07T01:09:31.506Z,58.5165
2023-04-07T01:10:33.388Z,59.2263
2023-04-07T01:11:35.393Z,59.0556
2023-04-07T01:12:37.388Z,58.3691
2023-04-07T01:13:39.257Z,58.3038
2023-04-07T01:14:41.157Z,58.0782
2023-04-07T01:15:43.096Z,57.9830
2023-04-07T01:16:45.076Z,58.2409
2023-04-07T01:17:47.074Z,58.2606
2023-04-07T01:18:49.077Z,58.5309
2023-04-07T01:19:50.998Z,58.1222
2023-04-07T01:20:52.887Z,57.8106
2023-04-07T01:21:54.844Z,57.9991
2023-04-07T01:22:56.776Z,58.3149
2023-04-07T01:23:58.758Z,57.8343
2023-04-07T01:25:00.693Z,57.7982
2023-04-07T01:26:02.683Z,56.8702
2023-04-07T01:27:04.613Z,57.0604
2023-04-07T01:28:06.528Z,56.6098
2023-04-07T01:29:08.485Z,57.0392
2023-04-07T01:30:10.385Z,57.0032
2023-04-07T01:31:12.327Z,57.2535
2023-04-07T01:32:14.225Z,57.0276
2023-04-07T01:33:16.209Z,57.2655
2023-04-07T01:34:18.089Z,56.9662
2023-04-07T01:35:19.984Z,56.8066
2023-04-07T01:36:21.881Z,57.3648
2023-04-07T01:37:23.942Z,57.4832
2023-04-07T01:38:25.912Z,57.2996
2023-04-07T01:39:28.037Z,57.3867
2023-04-07T01:40:30.018Z,57.0847
2023-04-07T01:41:31.908Z,57.5739
2023-04-07T01:42:33.851Z,57.7893
2023-04-07T01:43:35.786Z,57.9795
2023-04-07T01:44:37.799Z,57.9080
2023-04-07T01:45:45.198Z,57.5760
2023-04-07T01:46:40.421Z,57.2347
2023-04-07T01:47:42.417Z,57.3735
2023-04-07T01:48:44.344Z,57.2363
2023-04-07T01:49:46.290Z,57.0166
2023-04-07T01:50:48.189Z,57.0974
2023-04-07T01:51:50.123Z,57.5678
2023-04-07T01:52:52.020Z,58.1181
2023-04-07T01:53:54.659Z,58.2663
2023-04-07T01:54:54.618Z,57.9389
2023-04-07T01:55:56.516Z,57.9424
2023-04-07T01:56:58.412Z,57.7292
2023-04-07T01:58:00.331Z,58.1439
2023-04-07T01:59:02.234Z,58.0884
2023-04-07T02:00:04.162Z,58.2383
2023-04-07T02:01:06.201Z,58.1386
2023-04-07T02:02:08.248Z,58.4758
2023-04-07T02:03:10.810Z,58.6875
2023-04-07T02:04:10.726Z,58.8412
2023-04-07T02:05:12.640Z,59.0733
2023-04-07T02:06:14.636Z,58.7626
2023-04-07T02:07:16.554Z,59.0629
2023-04-07T02:08:18.506Z,59.1005
2023-04-07T02:09:20.394Z,58.9050
2023-04-07T02:10:22.304Z,59.0511
2023-04-07T02:11:24.214Z,59.3827
2023-04-07T02:12:26.101Z,59.6634
2023-04-07T02:13:28.029Z,60.0793
2023-04-07T02:14:29.997Z,60.8581
2023-04-07T02:15:31.946Z,60.7879
2023-04-07T02:16:33.991Z,61.1708
2023-04-07T02:17:35.962Z,60.3892
2023-04-07T02:18:37.888Z,61.0285
2023-04-07T02:19:39.805Z,60.4514
2023-04-07T02:20:41.808Z,61.0242
2023-04-07T02:21:43.807Z,61.0073
2023-04-07T02:22:45.722Z,60.3925
2023-04-07T02:23:47.657Z,60.1195
2023-04-07T02:24:49.604Z,60.1624
2023-04-07T02:25:51.610Z,60.6169
2023-04-07T02:26:53.578Z,61.1483
2023-04-07T02:27:55.627Z,60.6086
2023-04-07T02:28:57.532Z,60.5909
2023-04-07T02:29:59.504Z,60.9822
2023-04-07T02:31:01.432Z,61.1471
2023-04-07T02:32:03.517Z,60.8368
2023-04-07T02:33:05.713Z,60.8804
2023-04-07T02:34:07.780Z,60.9605
2023-04-07T02:35:09.730Z,60.3961
2023-04-07T02:36:11.673Z,60.0003
2023-04-07T02:37:13.672Z,60.3607
2023-04-07T02:38:15.596Z,60.4903
2023-04-07T02:39:17.542Z,60.4271
2023-04-07T02:40:19.485Z,60.2944
2023-04-07T02:41:21.397Z,60.8245
2023-04-07T02:42:23.485Z,60.6652
2023-04-07T02:43:25.485Z,60.6961
2023-04-07T02:44:27.451Z,60.2727
2023-04-07T02:45:29.391Z,60.4418
2023-04-07T02:46:31.491Z,60.0078
2023-04-07T02:47:33.483Z,59.7345
2023-04-07T02:48:35.428Z,59.9213
2023-04-07T02:49:37.327Z,59.5850
2023-04-07T02:50:39.268Z,59.2911
2023-04-07T02:51:41.208Z,59.8912
2023-04-07T02:52:43.088Z,59.9477
2023-04-07T02:53:45.087Z,60.3504
2023-04-07T02:54:46.998Z,60.4422
2023-04-07T02:55:48.989Z,59.8398
2023-04-07T02:56:50.956Z,60.3280
2023-04-07T02:57:52.920Z,60.4562
2023-04-07T02:58:54.989Z,60.8687
2023-04-07T02:59:56.964Z,60.4273
2023-04-07T03:00:58.973Z,60.9897
2023-04-07T03:02:01.232Z,61.1731
2023-04-07T03:03:03.608Z,60.5376
2023-04-07T03:04:06.447Z,60.9916
2023-04-07T03:05:06.226Z,60.7934
2023-04-07T03:06:08.223Z,60.2895
2023-04-07T03:07:10.232Z,60.0197
2023-04-07T03:08:13.506Z,60.6287
2023-04-07T03:09:13.255Z,60.6278
2023-04-07T03:10:15.328Z,60.9454
2023-04-07T03:11:17.315Z,60.7576
2023-04-07T03:12:19.310Z,60.7266
2023-04-07T03:13:21.371Z,61.2988
2023-04-07T03:14:23.384Z,61.6618
2023-04-07T03:15:25.499Z,61.6669
2023-04-07T03:16:27.592Z,61.2330
2023-04-07T03:17:29.681Z,61.6619
2023-04-07T03:18:31.609Z,61.0389
2023-04-07T03:19:33.604Z,62.3759
2023-04-07T03:20:35.618Z,61.9627
2023-04-07T03:21:37.635Z,62.0204
2023-04-07T03:22:39.724Z,61.3508
2023-04-07T03:23:41.806Z,61.5099
2023-04-07T03:24:43.807Z,61.1734
2023-04-07T03:25:48.891Z,61.0843
2023-04-07T03:26:46.280Z,61.4807
2023-04-07T03:27:48.277Z,61.4314
2023-04-07T03:28:50.313Z,61.6829
2023-04-07T03:29:52.273Z,61.7777
2023-04-07T03:30:54.347Z,62.1496
2023-04-07T03:31:56.291Z,61.8249
2023-04-07T03:32:58.333Z,62.2631
2023-04-07T03:34:00.261Z,62.4701
2023-04-07T03:35:02.271Z,62.0131
2023-04-07T03:36:04.415Z,62.5765
2023-04-07T03:37:06.375Z,62.6055
2023-04-07T03:38:08.766Z,62.8994
2023-04-07T03:39:10.730Z,62.8942
2023-04-07T03:40:12.721Z,62.8330
2023-04-07T03:41:14.732Z,62.6178
2023-04-07T03:42:16.764Z,62.9048
2023-04-07T03:43:18.811Z,62.9977
2023-04-07T03:44:20.805Z,63.1162
2023-04-07T03:45:22.820Z,63.6304
2023-04-07T03:46:24.960Z,64.0733
2023-04-07T03:47:27.032Z,64.0669
2023-04-07T03:48:29.690Z,64.2325
2023-04-07T03:49:29.395Z,63.8439
2023-04-07T03:50:31.349Z,63.2715
2023-04-07T03:51:33.372Z,63.2722
2023-04-07T03:52:35.354Z,63.7718
2023-04-07T03:53:37.362Z,63.3263
2023-04-07T03:54:39.361Z,62.9736
2023-04-07T03:55:41.341Z,63.2087
2023-04-07T03:56:43.307Z,63.5174
2023-04-07T03:57:45.325Z,63.7609
2023-04-07T03:58:47.281Z,64.5225
2023-04-07T03:59:49.318Z,63.8256
2023-04-07T04:00:51.271Z,64.2160
2023-04-07T04:01:53.301Z,65.4220
2023-04-07T04:02:55.662Z,66.7523
2023-04-07T04:03:59.176Z,67.6947
2023-04-07T04:04:59.702Z,68.7881
2023-04-07T04:06:01.666Z,68.4262
2023-04-07T04:07:03.686Z,67.6297
2023-04-07T04:08:05.673Z,66.8527
2023-04-07T04:09:07.678Z,66.5847
2023-04-07T04:10:09.657Z,66.4734
2023-04-07T04:11:11.741Z,65.4585
2023-04-07T04:12:13.712Z,64.8060
2023-04-07T04:13:15.713Z,64.2392
2023-04-07T04:14:17.780Z,64.7027
2023-04-07T04:15:19.845Z,65.1197
2023-04-07T04:16:21.905Z,65.8313
2023-04-07T04:17:24.115Z,66.1527
2023-04-07T04:18:26.186Z,66.2898
2023-04-07T04:19:28.169Z,66.3953
2023-04-07T04:20:30.209Z,66.2259
2023-04-07T04:21:32.192Z,65.2875
2023-04-07T04:22:34.150Z,65.5836
2023-04-07T04:23:36.151Z,65.3291
2023-04-07T04:24:38.112Z,65.0646
2023-04-07T04:25:40.136Z,64.4023
2023-04-07T04:26:42.135Z,64.2432
2023-04-07T04:27:44.192Z,63.8316
2023-04-07T04:28:46.394Z,62.9603
2023-04-07T04:29:48.631Z,62.3083
2023-04-07T04:30:50.669Z,62.6866
2023-04-07T04:31:52.595Z,63.1232
2023-04-07T04:32:54.770Z,62.5896
2023-04-07T04:33:56.737Z,62.2451
2023-04-07T04:34:58.813Z,62.2765
2023-04-07T04:36:00.901Z,62.8101
2023-04-07T04:37:03.058Z,63.5285
2023-04-07T04:38:05.116Z,64.5190
2023-04-07T04:39:07.119Z,64.3859
2023-04-07T04:40:09.129Z,64.4335
2023-04-07T04:41:11.134Z,66.1967
2023-04-07T04:42:13.275Z,66.4328
2023-04-07T04:43:15.270Z,65.4711
2023-04-07T04:44:17.362Z,65.6264
2023-04-07T04:45:19.380Z,65.8741
2023-04-07T04:46:21.379Z,65.9176
2023-04-07T04:47:23.645Z,66.1901
2023-04-07T04:48:25.817Z,66.4311
2023-04-07T04:49:27.909Z,66.3406
2023-04-07T04:50:29.929Z,65.9479
2023-04-07T04:51:31.984Z,66.6394
2023-04-07T04:52:33.991Z,66.6173
2023-04-07T04:53:36.010Z,66.6946
2023-04-07T04:54:37.956Z,66.2925
2023-04-07T04:55:40.021Z,66.7072
2023-04-07T04:56:42.116Z,66.8887
2023-04-07T04:57:44.121Z,67.3025
2023-04-07T04:58:46.103Z,67.5074
2023-04-07T04:59:48.124Z,68.1114
2023-04-07T05:00:50.196Z,68.7387
2023-04-07T05:01:52.378Z,69.3837
2023-04-07T05:02:55.917Z,69.2852
2023-04-07T05:03:56.879Z,69.2913
2023-04-07T05:04:56.921Z,69.3842
2023-04-07T05:05:58.906Z,69.4045
2023-04-07T05:07:00.992Z,69.3099
2023-04-07T05:08:03.031Z,69.4282
2023-04-07T05:09:05.069Z,69.6489
2023-04-07T05:10:07.079Z,69.7958
2023-04-07T05:11:09.064Z,69.9158
2023-04-07T05:12:11.146Z,69.7822
2023-04-07T05:13:13.141Z,70.0683
2023-04-07T05:14:15.173Z,70.3448
2023-04-07T05:15:17.349Z,70.8492
2023-04-07T05:16:19.364Z,70.6283
2023-04-07T05:17:21.517Z,69.9531
2023-04-07T05:18:23.545Z,69.8132
2023-04-07T05:19:25.598Z,69.8932
2023-04-07T05:20:27.570Z,69.7129
2023-04-07T05:21:29.674Z,69.7003
2023-04-07T05:22:30.108Z,69.5489
2023-04-07T05:23:32.101Z,69.1805
2023-04-07T05:24:34.082Z,69.2513
2023-04-07T05:25:36.148Z,69.8459
2023-04-07T05:26:38.214Z,69.7906
2023-04-07T05:27:40.223Z,70.5769
2023-04-07T05:28:42.347Z,70.7263
2023-04-07T05:29:44.360Z,70.0075
2023-04-07T05:30:46.418Z,70.0754
2023-04-07T05:31:48.476Z,69.6961
2023-04-07T05:32:50.651Z,70.0449
2023-04-07T05:33:53.597Z,69.9601
2023-04-07T05:34:53.415Z,69.7476
2023-04-07T05:35:55.483Z,70.0675
2023-04-07T05:36:57.522Z,70.0626
2023-04-07T05:37:59.592Z,70.0608
2023-04-07T05:39:01.607Z,69.6291
2023-04-07T05:40:03.654Z,69.3639
2023-04-07T05:41:05.662Z,68.9687
2023-04-07T05:42:07.727Z,68.8742
2023-04-07T05:43:09.684Z,68.2934
2023-04-07T05:44:11.741Z,68.1999
2023-04-07T05:45:13.750Z,68.3112
2023-04-07T05:46:15.991Z,68.2490
2023-04-07T05:47:18.080Z,68.5480
2023-04-07T05:48:20.092Z,68.1232
2023-04-07T05:49:22.102Z,67.7048
2023-04-07T05:50:24.150Z,67.3602
2023-04-07T05:51:26.151Z,67.6136
2023-04-07T05:52:28.201Z,67.6466
2023-04-07T05:53:30.185Z,67.2358
2023-04-07T05:54:32.187Z,67.2996
2023-04-07T05:55:34.198Z,67.5068
2023-04-07T05:56:36.290Z,67.7709
2023-04-07T05:57:38.290Z,68.0379
2023-04-07T05:58:40.437Z,68.1204
2023-04-07T05:59:42.427Z,67.9410
2023-04-07T06:00:44.479Z,68.5084
2023-04-07T06:01:46.759Z,68.8534
2023-04-07T06:02:49.538Z,68.5815
2023-04-07T06:03:51.143Z,68.7836
2023-04-07T06:04:51.336Z,69.5244
2023-04-07T06:05:53.329Z,68.8220
2023-04-07T06:06:55.569Z,69.0189
2023-04-07T06:07:57.685Z,69.4486
2023-04-07T06:08:59.801Z,69.1624
2023-04-07T06:10:01.835Z,69.9196
2023-04-07T06:11:03.857Z,70.4219
2023-04-07T06:12:05.936Z,71.0606
2023-04-07T06:13:07.955Z,70.9125
2023-04-07T06:14:10.032Z,70.4645
2023-04-07T06:15:12.053Z,70.0284
2023-04-07T06:16:14.081Z,69.8848
2023-04-07T06:17:16.213Z,70.0398
2023-04-07T06:18:18.214Z,69.1281
2023-04-07T06:19:20.294Z,68.5700
2023-04-07T06:20:22.289Z,68.3389
2023-04-07T06:21:24.363Z,68.2499
2023-04-07T06:22:26.389Z,68.1640
2023-04-07T06:23:28.456Z,68.0585
2023-04-07T06:24:30.420Z,67.6132
2023-04-07T06:25:32.440Z,66.6795
2023-04-07T06:26:34.426Z,67.2726
2023-04-07T06:27:36.432Z,67.4246
2023-04-07T06:28:38.412Z,67.7902
2023-04-07T06:29:40.362Z,68.3395
2023-04-07T06:30:42.404Z,68.2747
2023-04-07T06:31:44.444Z,67.9123
2023-04-07T06:32:46.697Z,67.4499
2023-04-07T06:33:49.299Z,66.9481
2023-04-07T06:34:49.272Z,66.1639
2023-04-07T06:35:51.322Z,66.4591
2023-04-07T06:36:53.437Z,66.2308
2023-04-07T06:37:55.458Z,65.7685
2023-04-07T06:38:57.610Z,65.4793
2023-04-07T06:39:59.697Z,65.5086
2023-04-07T06:41:01.786Z,65.5430
2023-04-07T06:42:03.802Z,65.2245
2023-04-07T06:43:05.805Z,65.1464
2023-04-07T06:44:09.951Z,64.7721
2023-04-07T06:45:09.731Z,65.1936
2023-04-07T06:46:11.861Z,65.3062
2023-04-07T06:47:13.920Z,65.5602
2023-04-07T06:48:15.927Z,65.4756
2023-04-07T06:49:17.980Z,65.6207
2023-04-07T06:50:20.062Z,66.1137
2023-04-07T06:51:22.177Z,66.4303
2023-04-07T06:52:24.294Z,65.6215
2023-04-07T06:53:26.318Z,65.3889
2023-04-07T06:54:29.439Z,64.9369
2023-04-07T06:55:29.196Z,64.5524
2023-04-07T06:56:31.249Z,64.5665
2023-04-07T06:57:33.373Z,63.5042
2023-04-07T06:58:35.489Z,63.2775
2023-04-07T06:59:37.531Z,63.6284
2023-04-07T07:00:39.600Z,63.3517
2023-04-07T07:01:41.863Z,62.7197
2023-04-07T07:02:44.237Z,62.7617
2023-04-07T07:03:46.749Z,62.8027
2023-04-07T07:04:46.821Z,63.9713
2023-04-07T07:05:51.022Z,63.7759
2023-04-07T07:06:50.938Z,63.0658
2023-04-07T07:07:52.999Z,63.5470
2023-04-07T07:08:55.330Z,62.7774
2023-04-07T07:09:55.284Z,62.9931
2023-04-07T07:10:57.378Z,63.0164
2023-04-07T07:11:59.361Z,66.4255
2023-04-07T07:13:01.390Z,66.8721
2023-04-07T07:14:03.460Z,66.8984
2023-04-07T07:15:05.509Z,67.3164
2023-04-07T07:16:07.659Z,67.5765
2023-04-07T07:17:09.803Z,67.7774
2023-04-07T07:18:11.811Z,67.7212
2023-04-07T07:19:13.940Z,68.2109
2023-04-07T07:20:16.089Z,67.5914
2023-04-07T07:21:18.173Z,67.4689
2023-04-07T07:22:20.220Z,67.2442
2023-04-07T07:23:22.262Z,67.2343
2023-04-07T07:24:24.293Z,68.1445
2023-04-07T07:25:26.331Z,68.0360
2023-04-07T07:26:28.405Z,68.0958
2023-04-07T07:27:30.471Z,68.6184
2023-04-07T07:28:32.521Z,68.3981
2023-04-07T07:29:35.565Z,68.2931
2023-04-07T07:30:35.295Z,68.1538
2023-04-07T07:31:37.485Z,67.9431
2023-04-07T07:32:39.892Z,67.7437
2023-04-07T07:33:41.908Z,68.2772
2023-04-07T07:34:43.990Z,68.7301
2023-04-07T07:35:46.037Z,67.9372
2023-04-07T07:36:48.061Z,67.7624
2023-04-07T07:37:50.080Z,68.9389
2023-04-07T07:38:52.082Z,68.5614
2023-04-07T07:39:54.077Z,68.4073
2023-04-07T07:40:56.088Z,67.6278
2023-04-07T07:41:58.212Z,68.4937
2023-04-07T07:43:00.221Z,68.8242
2023-04-07T07:44:02.218Z,68.8786
2023-04-07T07:45:04.208Z,67.6969
2023-04-07T07:46:06.237Z,66.7295
2023-04-07T07:47:08.262Z,67.0153
2023-04-07T07:48:10.294Z,67.0830
2023-04-07T07:49:12.353Z,69.0172
2023-04-07T07:50:15.121Z,68.2517
2023-04-07T07:51:14.882Z,66.9936
2023-04-07T07:52:16.924Z,66.8470
2023-04-07T07:53:18.962Z,67.3723
2023-04-07T07:54:20.977Z,66.7640
2023-04-07T07:55:23.025Z,67.8783
2023-04-07T07:56:25.097Z,67.0448
2023-04-07T07:57:27.136Z,67.4085
2023-04-07T07:58:29.268Z,67.2564
2023-04-07T07:59:31.358Z,67.3709
2023-04-07T08:00:33.428Z,66.9061
2023-04-07T08:01:35.588Z,66.4876
2023-04-07T08:02:37.782Z,66.4207
2023-04-07T08:03:40.235Z,66.7480
2023-04-07T08:04:40.256Z,66.9824
2023-04-07T08:05:42.376Z,66.5111
2023-04-07T08:06:44.450Z,66.7001
2023-04-07T08:07:46.519Z,66.7386
2023-04-07T08:08:48.538Z,66.5899
2023-04-07T08:09:50.544Z,66.8485
2023-04-07T08:10:52.570Z,67.2331
2023-04-07T08:11:54.622Z,67.5289
2023-04-07T08:12:56.920Z,67.1573
2023-04-07T08:13:59.017Z,67.5962
2023-04-07T08:15:01.135Z,68.4911
2023-04-07T08:16:03.255Z,69.0185
2023-04-07T08:17:06.360Z,68.8962
2023-04-07T08:18:06.263Z,68.5571
2023-04-07T08:19:08.323Z,68.3608
2023-04-07T08:20:10.342Z,68.1415
2023-04-07T08:21:12.417Z,67.5051
2023-04-07T08:22:14.767Z,67.7779
2023-04-07T08:23:16.833Z,67.4804
2023-04-07T08:24:18.911Z,67.4346
2023-04-07T08:25:21.014Z,67.9029
2023-04-07T08:26:23.133Z,67.0784
2023-04-07T08:27:25.261Z,66.9247
2023-04-07T08:28:28.315Z,66.6365
2023-04-07T08:29:30.022Z,66.7440
2023-04-07T08:30:28.618Z,66.7853
2023-04-07T08:31:30.812Z,66.9958
2023-04-07T08:32:32.916Z,66.8826
2023-04-07T08:33:34.970Z,66.7896
2023-04-07T08:34:37.032Z,67.0345
2023-04-07T08:35:39.081Z,67.1695
2023-04-07T08:36:44.251Z,67.6139
2023-04-07T08:37:41.784Z,67.9821
2023-04-07T08:38:43.864Z,68.1564
2023-04-07T08:39:45.907Z,68.5585
2023-04-07T08:40:47.973Z,68.5406
2023-04-07T08:41:50.055Z,68.8583
2023-04-07T08:42:52.138Z,68.7536
2023-04-07T08:43:54.106Z,68.9766
2023-04-07T08:44:56.093Z,69.5858
2023-04-07T08:45:58.118Z,70.3200
2023-04-07T08:47:00.257Z,70.4292
2023-04-07T08:48:02.326Z,70.9585
2023-04-07T08:49:04.403Z,71.1605
2023-04-07T08:50:06.480Z,70.7812
2023-04-07T08:51:08.639Z,71.5533
2023-04-07T08:52:10.605Z,71.9005
2023-04-07T08:53:12.756Z,71.8759
2023-04-07T08:54:14.790Z,71.9582
2023-04-07T08:55:16.821Z,71.8708
2023-04-07T08:56:18.914Z,72.5076
2023-04-07T08:57:20.922Z,73.1612
2023-04-07T08:58:22.953Z,73.1710
2023-04-07T08:59:24.989Z,73.2617
2023-04-07T09:00:27.042Z,73.3913
2023-04-07T09:01:29.206Z,73.4036
2023-04-07T09:02:31.471Z,73.7002
2023-04-07T09:03:33.797Z,73.3370
2023-04-07T09:04:35.836Z,73.3219
2023-04-07T09:05:37.920Z,73.0624
2023-04-07T09:06:39.903Z,72.6597
2023-04-07T09:07:41.940Z,72.7554
2023-04-07T09:08:43.946Z,72.7407
2023-04-07T09:09:45.932Z,72.8081
2023-04-07T09:10:47.944Z,73.0303
2023-04-07T09:11:49.942Z,72.3380
2023-04-07T09:12:51.972Z,72.8366
2023-04-07T09:13:53.945Z,72.4849
2023-04-07T09:14:55.950Z,72.3650
2023-04-07T09:15:57.979Z,72.4311
2023-04-07T09:17:00.231Z,72.4147
2023-04-07T09:18:02.324Z,72.4283
2023-04-07T09:19:04.328Z,72.5269
2023-04-07T09:20:06.397Z,72.6251
2023-04-07T09:21:08.571Z,72.8948
2023-04-07T09:22:10.547Z,72.6084
2023-04-07T09:23:12.571Z,72.7710
2023-04-07T09:24:14.821Z,72.6397
2023-04-07T09:25:16.861Z,72.4368
2023-04-07T09:26:18.819Z,72.1684
2023-04-07T09:27:20.802Z,72.0177
2023-04-07T09:28:22.896Z,71.7222
2023-04-07T09:29:25.111Z,71.7804
2023-04-07T09:30:27.125Z,71.9084
2023-04-07T09:31:29.233Z,71.7587
2023-04-07T09:32:31.192Z,72.3573
2023-04-07T09:33:33.285Z,72.6303
2023-04-07T09:34:35.324Z,72.4029
2023-04-07T09:35:37.309Z,72.1403
2023-04-07T09:36:39.365Z,72.5286
2023-04-07T09:37:41.390Z,72.8597
2023-04-07T09:38:43.401Z,72.6658
2023-04-07T09:39:45.439Z,72.3148
2023-04-07T09:40:47.428Z,72.5735
2023-04-07T09:41:49.480Z,72.7737
2023-04-07T09:42:51.513Z,72.8159
2023-04-07T09:43:53.523Z,72.4588
2023-04-07T09:44:55.536Z,72.6944
2023-04-07T09:45:57.631Z,73.1186
2023-04-07T09:46:59.634Z,73.2328
2023-04-07T09:48:00.485Z,72.8415
2023-04-07T09:49:02.496Z,72.5921
2023-04-07T09:50:04.479Z,73.3280
2023-04-07T09:51:06.649Z,73.0449
2023-04-07T09:52:08.616Z,73.0213
2023-04-07T09:53:10.682Z,73.6025
2023-04-07T09:54:12.747Z,73.0122
2023-04-07T09:55:14.759Z,73.3139
2023-04-07T09:56:16.802Z,73.4230
2023-04-07T09:57:18.893Z,73.2441
2023-04-07T09:58:20.915Z,73.2024
2023-04-07T09:59:22.962Z,72.9239
2023-04-07T10:00:24.964Z,73.0647
2023-04-07T10:01:25.774Z,73.3017
2023-04-07T10:02:28.092Z,73.3703
2023-04-07T10:03:30.303Z,73.3312
2023-04-07T10:04:32.588Z,73.0688
2023-04-07T10:05:34.598Z,72.9598
2023-04-07T10:06:36.684Z,72.5885
2023-04-07T10:07:42.594Z,72.3829
2023-04-07T10:08:40.504Z,72.4499
2023-04-07T10:09:42.505Z,72.5904
2023-04-07T10:10:44.563Z,72.4872
2023-04-07T10:11:46.624Z,72.4579
2023-04-07T10:12:48.621Z,72.3043
2023-04-07T10:13:50.878Z,71.9593
2023-04-07T10:14:52.844Z,72.2661
2023-04-07T10:15:54.862Z,72.3750
2023-04-07T10:16:56.926Z,72.4037
2023-04-07T10:17:58.942Z,72.3253
2023-04-07T10:19:00.982Z,72.8648
2023-04-07T10:20:03.042Z,72.7676
2023-04-07T10:21:05.017Z,72.8125
2023-04-07T10:22:07.038Z,72.7586
2023-04-07T10:23:09.042Z,73.0647
2023-04-07T10:24:11.109Z,73.6054
2023-04-07T10:25:13.146Z,73.4183
2023-04-07T10:26:15.151Z,73.5092
2023-04-07T10:27:17.181Z,73.8645
2023-04-07T10:28:19.146Z,74.0295
2023-04-07T10:29:21.212Z,73.6404
2023-04-07T10:30:23.230Z,73.4952
2023-04-07T10:31:25.287Z,73.6704
2023-04-07T10:32:27.390Z,73.5216
2023-04-07T10:33:29.381Z,73.8466
2023-04-07T10:34:31.422Z,73.8386
2023-04-07T10:35:34.509Z,73.8660
2023-04-07T10:36:34.223Z,73.8183
2023-04-07T10:37:36.240Z,73.4101
2023-04-07T10:38:38.223Z,73.7745
2023-04-07T10:39:40.224Z,73.8610
2023-04-07T10:40:42.304Z,74.4200
2023-04-07T10:41:44.340Z,74.3778
2023-04-07T10:42:46.346Z,74.2656
2023-04-07T10:43:48.663Z,74.9033
2023-04-07T10:44:48.462Z,74.5218
2023-04-07T10:45:50.530Z,74.7580
2023-04-07T10:46:52.555Z,74.9110
2023-04-07T10:47:54.639Z,75.1354
2023-04-07T10:48:56.633Z,75.4435
2023-04-07T10:49:58.700Z,75.3358
2023-04-07T10:51:00.693Z,75.2401
2023-04-07T10:52:02.729Z,75.3060
2023-04-07T10:53:04.734Z,75.9292
2023-04-07T10:54:06.774Z,76.1736
2023-04-07T10:55:08.815Z,76.0228
2023-04-07T10:56:10.881Z,75.0742
2023-04-07T10:57:12.904Z,74.5061
2023-04-07T10:58:14.897Z,75.2095
2023-04-07T10:59:16.933Z,75.6723
2023-04-07T11:00:18.968Z,75.7775
2023-04-07T11:01:21.179Z,75.1819
2023-04-07T11:02:23.807Z,75.1395
2023-04-07T11:03:24.817Z,75.2280
2023-04-07T11:04:24.966Z,75.6755
2023-04-07T11:05:24.802Z,76.7746
2023-04-07T11:06:26.892Z,76.9754
2023-04-07T11:07:28.942Z,76.9745
2023-04-07T11:08:31.043Z,77.8126
2023-04-07T11:09:33.087Z,78.7314
2023-04-07T11:10:35.171Z,78.9727
2023-04-07T11:11:37.259Z,79.6928
2023-04-07T11:12:39.352Z,80.0949
2023-04-07T11:13:41.470Z,80.5676
2023-04-07T11:14:43.649Z,81.0115
2023-04-07T11:15:45.788Z,80.9458
2023-04-07T11:16:47.845Z,81.7187
2023-04-07T11:17:49.954Z,82.4830
2023-04-07T11:18:52.025Z,82.4503
2023-04-07T11:19:54.195Z,81.9465
2023-04-07T11:20:56.293Z,82.1462
2023-04-07T11:21:58.395Z,82.5339
2023-04-07T11:23:00.548Z,82.7760
2023-04-07T11:24:02.642Z,83.2230
2023-04-07T11:25:04.827Z,82.8577
2023-04-07T11:26:06.895Z,82.9747
2023-04-07T11:27:09.024Z,83.7754
2023-04-07T11:28:11.137Z,83.9389
2023-04-07T11:29:13.273Z,84.6483
2023-04-07T11:30:15.505Z,84.7882
2023-04-07T11:31:17.638Z,84.7415
2023-04-07T11:32:19.831Z,85.2528
2023-04-07T11:33:22.024Z,85.5958
2023-04-07T11:34:24.163Z,85.3792
2023-04-07T11:35:26.328Z,86.2907
2023-04-07T11:36:28.454Z,85.9700
2023-04-07T11:37:30.568Z,85.9855
2023-04-07T11:38:32.633Z,86.4987
2023-04-07T11:39:34.814Z,87.2134
2023-04-07T11:40:36.938Z,87.8797
2023-04-07T11:41:39.061Z,87.8360
2023-04-07T11:42:41.220Z,87.4321
2023-04-07T11:43:43.495Z,87.0888
2023-04-07T11:44:45.670Z,87.3405
2023-04-07T11:45:47.793Z,86.9946
2023-04-07T11:46:49.988Z,87.1929
2023-04-07T11:47:52.334Z,86.9822
2023-04-07T11:48:54.500Z,86.8987
2023-04-07T11:49:56.621Z,86.9406
2023-04-07T11:50:58.761Z,87.3173
2023-04-07T11:52:00.974Z,87.5805
2023-04-07T11:53:03.195Z,86.8887
2023-04-07T11:54:05.423Z,86.5625
2023-04-07T11:55:07.570Z,86.6855
2023-04-07T11:56:09.733Z,86.9271
2023-04-07T11:57:11.893Z,86.9912
2023-04-07T11:58:14.134Z,86.2709
2023-04-07T11:59:16.335Z,86.6243
2023-04-07T12:00:18.519Z,86.5731
2023-04-07T12:01:20.711Z,86.2546
2023-04-07T12:02:23.085Z,86.2617
2023-04-07T12:03:26.120Z,86.0621
2023-04-07T12:04:26.265Z,86.5916
2023-04-07T12:05:28.443Z,86.9607
2023-04-07T12:06:30.681Z,87.0608
2023-04-07T12:07:32.871Z,87.1183
2023-04-07T12:08:35.084Z,87.2862
2023-04-07T12:09:37.231Z,87.6898
2023-04-07T12:10:39.405Z,87.8901
2023-04-07T12:11:41.606Z,87.3630
2023-04-07T12:12:43.739Z,87.6220
2023-04-07T12:13:45.948Z,87.2542
2023-04-07T12:14:48.053Z,87.6554
2023-04-07T12:15:50.282Z,88.2376
2023-04-07T12:16:52.489Z,88.0114
2023-04-07T12:17:54.679Z,88.0740
2023-04-07T12:18:56.804Z,88.4534
2023-04-07T12:19:58.953Z,88.3379
2023-04-07T12:21:01.151Z,88.0758
2023-04-07T12:22:03.317Z,87.4994
2023-04-07T12:23:05.490Z,87.2566
2023-04-07T12:24:07.629Z,87.4856
2023-04-07T12:25:09.776Z,87.8068
2023-04-07T12:26:11.932Z,87.4338
2023-04-07T12:27:14.103Z,87.5006
2023-04-07T12:28:16.244Z,87.2383
2023-04-07T12:29:18.379Z,87.0928